CPX333 Details

Departure: Valley International Airport (KHRL)
Arrival: Austin-Bergstrom International Airport (KAUS) at N/A
Route: CRP PCKIT
Notes:


Current Weather Information
KHRL 251052Z 15007KT 8SM CLR 27/26 A2982 RMK AO2 SLP098 T02720261
KAUS 251056Z 18003KT 7SM BKN004 24/23 A2986 RMK AO2 T02440233